Terminal Aerodrome Forecast
Issued by NWS Central Illinois

Home | Current Version | Previous Version | Text Only | Print | Product List | Glossary On
Versions: 1 2 3 4 5 6 7 8 9 10 11 12 13
366
FTUS43 KILX 251735
TAFSPI
TAF
KSPI 251735Z 2518/2618 18012G17KT P6SM SCT040 BKN150
     FM251900 18011G18KT P6SM VCTS SCT050CB BKN120
     FM260000 18007KT P6SM BKN050 BKN120
     FM261100 19010KT P6SM VCTS BKN050CB=

USA.gov is the U.S. government's official web portal to all federal, state and local government web resources and services.